TimeEDT,TemperatureF,Dew PointF,Humidity,Sea Level PressureIn,VisibilityMPH,Wind Direction,Wind SpeedMPH,Gust SpeedMPH,PrecipitationIn,Events,Conditions,WindDirDegrees,DateUTC
12:54 AM,66.0,63.0,90,30.06,8.0,Variable,3.5,-,N/A,,Unknown,0,2013-07-27 04:54:00
1:54 AM,64.9,63.0,93,30.06,6.0,Calm,Calm,-,N/A,,Clear,0,2013-07-27 05:54:00
2:54 AM,64.0,62.1,93,30.05,6.0,Calm,Calm,-,N/A,,Clear,0,2013-07-27 06:54:00
3:54 AM,63.0,61.0,93,30.05,5.0,Calm,Calm,-,N/A,,Partly Cloudy,0,2013-07-27 07:54:00
4:51 AM,62.6,60.8,94,30.05,2.0,Calm,Calm,-,N/A,,Clear,0,2013-07-27 08:51:00
4:54 AM,62.1,61.0,96,30.05,2.5,Calm,Calm,-,N/A,,Clear,0,2013-07-27 08:54:00
5:01 AM,62.6,60.8,94,30.05,6.0,Calm,Calm,-,N/A,,Clear,0,2013-07-27 09:01:00
5:54 AM,63.0,61.0,93,30.05,5.0,Calm,Calm,-,N/A,,Scattered Clouds,0,2013-07-27 09:54:00
6:54 AM,64.0,62.1,93,30.05,4.0,Calm,Calm,-,N/A,,Mist,0,2013-07-27 10:54:00
7:54 AM,69.1,66.0,90,30.05,7.0,Calm,Calm,-,N/A,,Unknown,0,2013-07-27 11:54:00
8:54 AM,73.9,68.0,82,30.06,10.0,Calm,Calm,-,N/A,,Clear,0,2013-07-27 12:54:00
9:54 AM,77.0,66.9,71,30.06,10.0,South,4.6,-,N/A,,Partly Cloudy,180,2013-07-27 13:54:00
10:54 AM,78.1,66.0,66,30.06,10.0,Variable,3.5,-,N/A,,Mostly Cloudy,0,2013-07-27 14:54:00
11:54 AM,80.1,64.0,58,30.05,10.0,Calm,Calm,-,N/A,,Scattered Clouds,0,2013-07-27 15:54:00
12:54 PM,82.9,62.1,49,30.04,10.0,Variable,5.8,-,N/A,,Clear,0,2013-07-27 16:54:00
1:54 PM,82.9,63.0,51,30.02,10.0,Variable,3.5,-,N/A,,Scattered Clouds,0,2013-07-27 17:54:00
2:54 PM,82.0,60.1,47,30.00,10.0,Variable,4.6,-,N/A,,Partly Cloudy,0,2013-07-27 18:54:00
3:54 PM,84.0,59.0,43,29.98,10.0,Calm,Calm,-,N/A,,Clear,0,2013-07-27 19:54:00
4:54 PM,81.0,62.1,52,29.96,10.0,Calm,Calm,-,N/A,,Clear,0,2013-07-27 20:54:00
5:54 PM,82.9,61.0,47,29.95,10.0,SE,8.1,-,N/A,,Clear,130,2013-07-27 21:54:00
6:54 PM,77.0,60.1,56,29.96,10.0,SE,8.1,16.1,N/A,,Clear,140,2013-07-27 22:54:00
7:54 PM,73.9,60.1,62,29.99,10.0,SSE,3.5,-,N/A,,Clear,160,2013-07-27 23:54:00
8:54 PM,71.1,61.0,70,29.99,10.0,Calm,Calm,-,N/A,,Clear,0,2013-07-28 00:54:00
9:54 PM,69.1,62.1,78,29.99,10.0,SE,3.5,-,N/A,,Clear,130,2013-07-28 01:54:00
10:54 PM,68.0,63.0,84,29.97,10.0,Calm,Calm,-,N/A,,Clear,0,2013-07-28 02:54:00
11:54 PM,66.0,63.0,90,29.96,10.0,Calm,Calm,-,N/A,,Clear,0,2013-07-28 03:54:00